createdAt,value
2019-03-31T00:01:45.131Z,9.61
2019-03-31T00:04:19.716Z,9.59
2019-03-31T00:06:53.793Z,9.57
2019-03-31T00:09:28.522Z,9.51
2019-03-31T00:12:02.967Z,9.45
2019-03-31T00:14:37.447Z,9.40
2019-03-31T00:17:11.987Z,9.35
2019-03-31T00:19:46.146Z,9.26
2019-03-31T00:22:20.232Z,9.18
2019-03-31T00:24:53.901Z,9.12
2019-03-31T00:27:28.984Z,9.07
2019-03-31T00:30:04.430Z,9.01
2019-03-31T00:32:39.071Z,8.97
2019-03-31T00:35:14.086Z,8.93
2019-03-31T00:37:49.215Z,8.90
2019-03-31T00:40:24.234Z,8.87
2019-03-31T00:42:58.713Z,8.81
2019-03-31T00:45:33.483Z,8.79
2019-03-31T00:48:08.670Z,8.76
2019-03-31T00:50:42.603Z,8.73
2019-03-31T00:53:17.690Z,8.68
2019-03-31T00:55:51.789Z,8.68
2019-03-31T00:58:26.384Z,8.64
2019-03-31T01:01:35.419Z,8.61
2019-03-31T01:03:58.414Z,8.56
2019-03-31T01:06:34.990Z,8.53
2019-03-31T01:09:26.690Z,8.52
2019-03-31T01:12:01.701Z,8.50
2019-03-31T01:14:36.588Z,8.50
2019-03-31T01:17:12.127Z,8.52
2019-03-31T01:19:47.087Z,8.52
2019-03-31T01:22:21.709Z,8.48
2019-03-31T01:24:55.790Z,8.48
2019-03-31T01:27:30.433Z,8.45
2019-03-31T01:30:04.954Z,8.46
2019-03-31T01:32:39.478Z,8.45
2019-03-31T01:35:13.968Z,8.45
2019-03-31T01:37:47.999Z,8.46
2019-03-31T01:40:23.281Z,8.47
2019-03-31T01:42:58.290Z,8.47
2019-03-31T01:45:31.963Z,8.46
2019-03-31T01:48:07.101Z,8.43
2019-03-31T01:50:41.240Z,8.41
2019-03-31T01:53:15.688Z,8.40
2019-03-31T01:55:50.723Z,8.36
2019-03-31T01:58:25.240Z,8.33
2019-03-31T02:01:02.006Z,8.32
2019-03-31T02:03:36.509Z,8.28
2019-03-31T02:06:11.341Z,8.31
2019-03-31T02:08:45.556Z,8.32
2019-03-31T02:11:20.013Z,8.32
2019-03-31T02:13:54.502Z,8.32
2019-03-31T02:16:28.679Z,8.32
2019-03-31T02:19:03.888Z,8.31
2019-03-31T02:21:38.367Z,8.28
2019-03-31T02:24:13.095Z,8.27
2019-03-31T02:26:48.453Z,8.24
2019-03-31T02:29:22.988Z,8.25
2019-03-31T02:31:57.635Z,8.26
2019-03-31T02:34:32.126Z,8.24
2019-03-31T02:37:07.164Z,8.23
2019-03-31T02:39:42.128Z,8.18
2019-03-31T02:42:16.210Z,8.17
2019-03-31T02:44:50.739Z,8.15
2019-03-31T02:47:25.456Z,8.15
2019-03-31T02:49:59.965Z,8.11
2019-03-31T02:52:34.095Z,8.11
2019-03-31T02:55:09.436Z,8.09
2019-03-31T02:57:44.480Z,8.05
2019-03-31T03:00:19.108Z,8.02
2019-03-31T03:02:54.800Z,8.00
2019-03-31T03:05:31.885Z,7.96
2019-03-31T03:08:06.662Z,7.91
2019-03-31T03:10:40.983Z,7.90
2019-03-31T03:13:16.727Z,7.88
2019-03-31T03:16:24.056Z,7.84
2019-03-31T03:18:58.671Z,7.76
2019-03-31T03:21:33.371Z,7.74
2019-03-31T03:24:08.500Z,7.71
2019-03-31T03:26:43.328Z,7.68
2019-03-31T03:29:18.266Z,7.67
2019-03-31T03:31:53.324Z,7.65
2019-03-31T03:34:27.421Z,7.62
2019-03-31T03:37:02.440Z,7.60
2019-03-31T03:39:37.403Z,7.57
2019-03-31T03:42:11.643Z,7.55
2019-03-31T03:44:46.135Z,7.54
2019-03-31T03:47:20.794Z,7.50
2019-03-31T03:49:54.915Z,7.48
2019-03-31T03:52:30.022Z,7.47
2019-03-31T03:55:04.185Z,7.43
2019-03-31T03:57:38.370Z,7.42
2019-03-31T04:00:13.386Z,7.40
2019-03-31T04:02:47.896Z,7.37
2019-03-31T04:05:21.556Z,7.36
2019-03-31T04:07:56.010Z,7.34
2019-03-31T04:11:28.514Z,7.33
2019-03-31T04:14:03.371Z,7.30
2019-03-31T04:16:37.529Z,7.26
2019-03-31T04:19:11.977Z,7.25
2019-03-31T04:21:46.791Z,7.24
2019-03-31T04:24:21.784Z,7.22
2019-03-31T04:26:56.602Z,7.23
2019-03-31T04:29:31.390Z,7.22
2019-03-31T04:32:05.831Z,7.20
2019-03-31T04:34:40.964Z,7.16
2019-03-31T04:37:15.592Z,7.14
2019-03-31T04:39:50.033Z,7.12
2019-03-31T04:42:24.969Z,7.10
2019-03-31T04:44:59.470Z,7.08
2019-03-31T04:47:34.212Z,7.08
2019-03-31T04:50:08.540Z,7.04
2019-03-31T04:52:42.989Z,7.04
2019-03-31T04:55:17.661Z,7.03
2019-03-31T04:57:52.101Z,7.03
2019-03-31T05:00:27.222Z,7.01
2019-03-31T05:03:02.356Z,6.99
2019-03-31T05:05:37.421Z,7.01
2019-03-31T05:08:12.838Z,7.02
2019-03-31T05:10:47.161Z,7.01
2019-03-31T05:13:20.752Z,7.03
2019-03-31T05:15:55.387Z,7.07
2019-03-31T05:18:29.896Z,7.11
2019-03-31T05:21:04.160Z,7.16
2019-03-31T05:23:38.498Z,7.20
2019-03-31T05:26:12.689Z,7.23
2019-03-31T05:28:47.721Z,7.27
2019-03-31T05:31:22.245Z,7.31
2019-03-31T05:33:56.765Z,7.35
2019-03-31T05:36:31.490Z,7.39
2019-03-31T05:39:07.731Z,7.44
2019-03-31T05:41:42.260Z,7.49
2019-03-31T05:44:16.868Z,7.55
2019-03-31T05:46:50.913Z,7.63
2019-03-31T05:49:25.833Z,7.72
2019-03-31T05:52:01.175Z,7.78
2019-03-31T05:54:36.206Z,7.86
2019-03-31T05:57:10.699Z,7.91
2019-03-31T05:59:44.847Z,8.02
2019-03-31T06:02:18.955Z,8.10
2019-03-31T06:04:53.062Z,8.19
2019-03-31T06:07:27.177Z,8.26
2019-03-31T06:10:02.094Z,8.34
2019-03-31T06:12:37.257Z,8.42
2019-03-31T06:15:11.645Z,8.53
2019-03-31T06:17:46.289Z,8.60
2019-03-31T06:20:21.335Z,8.64
2019-03-31T06:22:55.958Z,8.70
2019-03-31T06:25:31.739Z,8.79
2019-03-31T06:28:06.236Z,8.87
2019-03-31T06:30:41.367Z,8.94
2019-03-31T06:33:16.301Z,9.00
2019-03-31T06:35:51.521Z,9.09
2019-03-31T06:38:25.749Z,9.17
2019-03-31T06:40:59.769Z,9.26
2019-03-31T06:43:34.730Z,9.34
2019-03-31T06:46:09.126Z,9.44
2019-03-31T06:48:43.642Z,9.49
2019-03-31T06:51:18.284Z,9.50
2019-03-31T06:53:52.858Z,9.60
2019-03-31T06:56:27.304Z,9.67
2019-03-31T06:59:02.395Z,9.75
2019-03-31T07:01:37.525Z,9.81
2019-03-31T07:04:12.553Z,9.87
2019-03-31T07:06:47.675Z,9.96
2019-03-31T07:09:22.293Z,10.07
2019-03-31T07:11:56.716Z,10.17
2019-03-31T07:14:31.581Z,10.28
2019-03-31T07:17:06.112Z,10.37
2019-03-31T07:19:40.591Z,10.46
2019-03-31T07:22:14.320Z,10.57
2019-03-31T07:24:48.703Z,10.68
2019-03-31T07:27:22.961Z,10.80
2019-03-31T07:29:57.846Z,10.90
2019-03-31T07:32:32.880Z,11.00
2019-03-31T07:35:17.870Z,11.13
2019-03-31T07:37:47.397Z,11.23
2019-03-31T07:40:19.146Z,11.34
2019-03-31T07:42:54.287Z,11.43
2019-03-31T07:45:29.964Z,11.54
2019-03-31T07:48:03.887Z,11.64
2019-03-31T07:50:38.154Z,11.74
2019-03-31T07:53:12.568Z,11.84
2019-03-31T07:55:47.092Z,11.94
2019-03-31T07:58:21.780Z,12.08
2019-03-31T08:00:57.351Z,12.22
2019-03-31T08:03:32.022Z,12.38
2019-03-31T08:06:07.186Z,12.54
2019-03-31T08:08:42.311Z,12.70
2019-03-31T08:11:17.175Z,12.81
2019-03-31T08:13:55.090Z,12.91
2019-03-31T08:16:27.419Z,13.01
2019-03-31T08:19:02.288Z,13.13
2019-03-31T08:21:35.914Z,13.24
2019-03-31T08:24:11.239Z,13.38
2019-03-31T08:26:46.166Z,13.58
2019-03-31T08:29:21.331Z,13.73
2019-03-31T08:31:56.236Z,13.89
2019-03-31T08:34:31.273Z,14.10
2019-03-31T08:37:05.409Z,14.28
2019-03-31T08:39:40.449Z,14.46
2019-03-31T08:42:15.437Z,14.58
2019-03-31T08:44:50.296Z,14.76
2019-03-31T08:47:27.258Z,14.93
2019-03-31T08:50:02.828Z,15.10
2019-03-31T08:52:38.098Z,15.20
2019-03-31T08:55:13.410Z,15.34
2019-03-31T08:57:48.025Z,15.44
2019-03-31T09:00:33.977Z,15.60
2019-03-31T09:03:09.539Z,15.72
2019-03-31T09:05:44.622Z,15.79
2019-03-31T09:08:20.889Z,15.88
2019-03-31T09:10:55.432Z,15.98
2019-03-31T09:13:30.547Z,16.06
2019-03-31T09:16:05.037Z,16.19
2019-03-31T09:18:39.999Z,16.20
2019-03-31T09:21:15.068Z,16.26
2019-03-31T09:23:50.512Z,16.28
2019-03-31T09:26:24.927Z,16.33
2019-03-31T09:28:59.311Z,16.39
2019-03-31T09:31:34.068Z,16.31
2019-03-31T09:34:09.414Z,16.32
2019-03-31T09:36:43.842Z,16.39
2019-03-31T09:39:18.523Z,16.38
2019-03-31T09:41:53.217Z,16.38
2019-03-31T09:44:30.273Z,16.41
2019-03-31T09:47:04.114Z,16.35
2019-03-31T09:49:39.174Z,16.34
2019-03-31T09:52:13.803Z,16.41
2019-03-31T09:54:48.459Z,16.44
2019-03-31T09:57:23.464Z,16.44
2019-03-31T09:59:57.606Z,16.31
2019-03-31T10:02:31.235Z,16.31
2019-03-31T10:05:04.684Z,16.36
2019-03-31T10:07:42.607Z,16.43
2019-03-31T10:10:33.903Z,16.52
2019-03-31T10:13:08.651Z,16.51
2019-03-31T10:15:43.704Z,16.56
2019-03-31T10:18:18.567Z,16.58
2019-03-31T10:20:53.361Z,16.66
2019-03-31T10:23:26.707Z,16.71
2019-03-31T10:26:01.129Z,16.75
2019-03-31T10:28:35.295Z,16.83
2019-03-31T10:31:09.530Z,16.88
2019-03-31T10:33:43.634Z,16.93
2019-03-31T10:36:18.229Z,16.99
2019-03-31T10:38:53.166Z,17.00
2019-03-31T10:41:29.496Z,17.08
2019-03-31T10:44:01.665Z,17.14
2019-03-31T10:46:35.395Z,17.20
2019-03-31T10:49:10.871Z,17.29
2019-03-31T10:51:44.271Z,17.35
2019-03-31T10:54:18.490Z,17.41
2019-03-31T10:56:52.960Z,17.48
2019-03-31T10:59:27.314Z,17.52
2019-03-31T11:02:01.660Z,17.59
2019-03-31T11:04:35.010Z,17.57
2019-03-31T11:07:09.107Z,17.59
2019-03-31T11:09:42.709Z,17.67
2019-03-31T11:12:16.012Z,17.76
2019-03-31T11:14:59.130Z,17.83
2019-03-31T11:17:32.916Z,17.94
2019-03-31T11:20:08.015Z,18.02
2019-03-31T11:22:50.510Z,18.11
2019-03-31T11:25:28.935Z,18.17
2019-03-31T11:27:58.619Z,18.30
2019-03-31T11:30:31.840Z,18.34
2019-03-31T11:33:07.505Z,18.45
2019-03-31T11:35:40.038Z,18.50
2019-03-31T11:38:12.902Z,18.61
2019-03-31T11:40:48.688Z,18.88
2019-03-31T11:43:22.525Z,19.08
2019-03-31T11:45:57.511Z,19.26
2019-03-31T11:48:31.243Z,19.52
2019-03-31T11:51:04.975Z,19.69
2019-03-31T11:53:39.281Z,20.01
2019-03-31T11:56:12.543Z,20.32
2019-03-31T11:58:46.467Z,20.56
2019-03-31T12:01:19.782Z,20.71
2019-03-31T12:03:54.704Z,21.03
2019-03-31T12:06:28.918Z,21.46
2019-03-31T12:09:02.243Z,21.87
2019-03-31T12:11:36.619Z,22.34
2019-03-31T12:14:10.968Z,22.75
2019-03-31T12:16:44.123Z,22.97
2019-03-31T12:19:17.593Z,23.10
2019-03-31T12:21:52.437Z,23.42
2019-03-31T12:24:26.174Z,23.67
2019-03-31T12:27:01.212Z,24.07
2019-03-31T12:29:36.029Z,24.28
2019-03-31T12:32:10.726Z,24.54
2019-03-31T12:34:45.419Z,24.67
2019-03-31T12:37:20.824Z,24.69
2019-03-31T12:39:55.772Z,24.81
2019-03-31T12:42:30.604Z,25.02
2019-03-31T12:45:05.586Z,24.91
2019-03-31T12:47:40.148Z,24.76
2019-03-31T12:50:14.258Z,24.32
2019-03-31T12:52:51.123Z,23.79
2019-03-31T12:55:25.997Z,23.39
2019-03-31T12:58:00.934Z,22.90
2019-03-31T13:00:34.564Z,22.68
2019-03-31T13:03:08.746Z,22.41
2019-03-31T13:05:43.440Z,22.51
2019-03-31T13:08:17.965Z,22.09
2019-03-31T13:10:52.799Z,21.55
2019-03-31T13:13:27.864Z,21.28
2019-03-31T13:16:02.461Z,21.22
2019-03-31T13:18:36.984Z,21.16
2019-03-31T13:21:11.389Z,21.30
2019-03-31T13:23:45.927Z,21.34
2019-03-31T13:26:20.848Z,21.49
2019-03-31T13:28:55.603Z,21.80
2019-03-31T13:31:30.529Z,22.30
2019-03-31T13:34:04.808Z,22.36
2019-03-31T13:36:39.243Z,22.24
2019-03-31T13:39:12.809Z,21.75
2019-03-31T13:41:47.905Z,21.62
2019-03-31T13:44:22.558Z,21.32
2019-03-31T13:46:57.688Z,20.99
2019-03-31T13:49:32.862Z,20.86
2019-03-31T13:52:07.967Z,20.88
2019-03-31T13:54:42.513Z,21.36
2019-03-31T13:57:16.953Z,21.51
2019-03-31T13:59:52.642Z,21.76
2019-03-31T14:02:26.417Z,21.53
2019-03-31T14:05:01.170Z,21.65
2019-03-31T14:07:35.362Z,21.88
2019-03-31T14:10:10.711Z,21.99
2019-03-31T14:12:45.286Z,21.86
2019-03-31T14:15:19.898Z,21.41
2019-03-31T14:17:55.100Z,21.38
2019-03-31T14:20:30.160Z,21.44
2019-03-31T14:23:03.863Z,21.34
2019-03-31T14:25:38.240Z,21.10
2019-03-31T14:28:13.041Z,21.17
2019-03-31T14:30:47.143Z,21.06
2019-03-31T14:33:21.569Z,20.90
2019-03-31T14:35:55.613Z,20.53
2019-03-31T14:38:40.094Z,20.34
2019-03-31T14:41:05.112Z,20.25
2019-03-31T14:43:39.479Z,20.43
2019-03-31T14:46:13.185Z,20.78
2019-03-31T14:48:47.465Z,21.25
2019-03-31T14:51:21.559Z,21.52
2019-03-31T14:53:56.637Z,21.87
2019-03-31T14:56:31.102Z,21.71
2019-03-31T14:59:06.322Z,21.43
2019-03-31T15:01:41.077Z,21.04
2019-03-31T15:04:15.588Z,20.95
2019-03-31T15:06:48.319Z,20.97
2019-03-31T15:09:22.031Z,21.01
2019-03-31T15:11:56.138Z,20.72
2019-03-31T15:14:30.506Z,20.42
2019-03-31T15:17:05.010Z,20.69
2019-03-31T15:19:38.141Z,20.97
2019-03-31T15:22:11.348Z,20.62
2019-03-31T15:24:45.186Z,20.38
2019-03-31T15:27:18.754Z,20.31
2019-03-31T15:29:52.420Z,20.09
2019-03-31T15:32:26.805Z,19.76
2019-03-31T15:34:59.678Z,19.64
2019-03-31T15:37:33.983Z,19.47
2019-03-31T15:40:08.178Z,19.21
2019-03-31T15:42:41.412Z,18.90
2019-03-31T15:45:15.698Z,18.66
2019-03-31T15:47:50.560Z,18.52
2019-03-31T15:50:24.951Z,18.36
2019-03-31T15:52:59.351Z,18.29
2019-03-31T15:55:34.460Z,18.22
2019-03-31T15:58:09.527Z,18.21
2019-03-31T16:00:44.606Z,18.07
2019-03-31T16:03:18.974Z,17.89
2019-03-31T16:05:54.021Z,17.76
2019-03-31T16:08:28.261Z,17.69
2019-03-31T16:11:04.651Z,17.61
2019-03-31T16:13:37.205Z,17.63
2019-03-31T16:16:14.117Z,17.52
2019-03-31T16:18:46.139Z,17.49
2019-03-31T16:21:19.828Z,17.44
2019-03-31T16:23:53.582Z,17.45
2019-03-31T16:26:27.351Z,17.43
2019-03-31T16:29:00.987Z,17.42
2019-03-31T16:31:34.266Z,17.32
2019-03-31T16:34:08.379Z,17.18
2019-03-31T16:36:42.465Z,16.80
2019-03-31T16:39:16.577Z,16.54
2019-03-31T16:41:50.592Z,16.28
2019-03-31T16:44:24.318Z,16.00
2019-03-31T16:46:58.410Z,15.74
2019-03-31T16:49:31.641Z,15.49
2019-03-31T16:52:05.762Z,15.24
2019-03-31T16:54:39.982Z,15.00
2019-03-31T16:57:13.652Z,14.82
2019-03-31T16:59:47.805Z,14.63
2019-03-31T17:02:21.988Z,14.46
2019-03-31T17:04:55.616Z,14.27
2019-03-31T17:07:29.317Z,14.15
2019-03-31T17:10:04.049Z,13.98
2019-03-31T17:12:38.159Z,13.84
2019-03-31T17:15:12.959Z,13.70
2019-03-31T17:17:46.594Z,13.55
2019-03-31T17:20:20.188Z,13.42
2019-03-31T17:22:54.315Z,13.29
2019-03-31T17:25:28.578Z,13.20
2019-03-31T17:28:02.281Z,13.01
2019-03-31T17:30:35.694Z,12.94
2019-03-31T17:33:08.717Z,12.86
2019-03-31T17:35:41.554Z,12.76
2019-03-31T17:38:14.509Z,12.65
2019-03-31T17:40:46.955Z,12.56
2019-03-31T17:43:19.718Z,12.45
2019-03-31T17:45:52.070Z,12.32
2019-03-31T17:48:25.475Z,12.18
2019-03-31T17:50:59.503Z,12.08
2019-03-31T17:53:32.408Z,11.94
2019-03-31T17:56:04.945Z,11.85
2019-03-31T17:58:37.903Z,11.75
2019-03-31T18:01:10.345Z,11.67
2019-03-31T18:03:44.120Z,11.63
2019-03-31T18:06:17.082Z,11.56
2019-03-31T18:08:50.531Z,11.51
2019-03-31T18:11:22.947Z,11.44
2019-03-31T18:13:57.083Z,11.39
2019-03-31T18:16:29.929Z,11.37
2019-03-31T18:19:03.050Z,11.30
2019-03-31T18:21:35.510Z,11.24
2019-03-31T18:24:09.354Z,11.24
2019-03-31T18:26:41.821Z,11.22
2019-03-31T18:29:14.342Z,11.18
2019-03-31T18:31:48.552Z,11.14
2019-03-31T18:34:21.071Z,11.08
2019-03-31T18:36:53.496Z,11.02
2019-03-31T18:39:27.495Z,10.97
2019-03-31T18:42:00.822Z,10.88
2019-03-31T18:44:33.214Z,10.85
2019-03-31T18:47:05.736Z,10.78
2019-03-31T18:49:38.061Z,10.75
2019-03-31T18:52:10.113Z,10.70
2019-03-31T18:55:00.477Z,10.70
2019-03-31T18:58:15.337Z,10.65
2019-03-31T19:00:59.850Z,10.59
2019-03-31T19:04:03.291Z,10.56
2019-03-31T19:06:44.023Z,10.47
2019-03-31T19:09:40.414Z,10.47
2019-03-31T19:12:40.862Z,10.44
2019-03-31T19:15:25.671Z,10.39
2019-03-31T19:18:07.295Z,10.35
2019-03-31T19:21:10.411Z,10.31
2019-03-31T19:23:49.647Z,10.26
2019-03-31T19:26:53.023Z,10.20
2019-03-31T19:29:50.146Z,10.08
2019-03-31T19:32:50.377Z,10.00
2019-03-31T19:35:33.489Z,9.94
2019-03-31T19:38:22.608Z,9.90
2019-03-31T19:41:16.924Z,9.85
2019-03-31T19:44:13.076Z,9.81
2019-03-31T19:47:07.536Z,9.74
2019-03-31T19:50:05.949Z,9.69
2019-03-31T19:52:52.615Z,9.63
2019-03-31T19:55:45.923Z,9.53
2019-03-31T19:58:40.187Z,9.46
2019-03-31T20:01:37.906Z,9.42
2019-03-31T20:04:30.440Z,9.42
2019-03-31T20:07:30.271Z,9.41
2019-03-31T20:10:22.251Z,9.40
2019-03-31T20:13:11.268Z,9.40
2019-03-31T20:15:57.679Z,9.39
2019-03-31T20:18:42.636Z,9.37
2019-03-31T20:21:32.563Z,9.34
2019-03-31T20:24:15.852Z,9.36
2019-03-31T20:26:55.374Z,9.35
2019-03-31T20:29:39.424Z,9.33
2019-03-31T20:32:30.176Z,9.30
2019-03-31T20:35:34.350Z,9.27
2019-03-31T20:38:15.340Z,9.22
2019-03-31T20:41:16.087Z,9.19
2019-03-31T20:43:56.630Z,9.15
2019-03-31T20:46:29.447Z,9.12
2019-03-31T20:49:02.290Z,9.11
2019-03-31T20:51:34.681Z,9.08
2019-03-31T20:54:08.477Z,9.05
2019-03-31T20:56:42.092Z,9.04
2019-03-31T20:59:16.284Z,9.01
2019-03-31T21:01:49.607Z,8.98
2019-03-31T21:04:23.691Z,8.96
2019-03-31T21:06:56.509Z,8.89
2019-03-31T21:09:43.766Z,8.81
2019-03-31T21:12:05.038Z,8.78
2019-03-31T21:14:37.471Z,8.70
2019-03-31T21:17:11.634Z,8.67
2019-03-31T21:19:45.823Z,8.64
2019-03-31T21:22:19.524Z,8.62
2019-03-31T21:24:53.509Z,8.57
2019-03-31T21:27:27.265Z,8.54
2019-03-31T21:30:00.895Z,8.49
2019-03-31T21:32:34.770Z,8.43
2019-03-31T21:35:08.372Z,8.35
2019-03-31T21:37:42.081Z,8.27
2019-03-31T21:40:15.789Z,8.22
2019-03-31T21:42:49.531Z,8.16
2019-03-31T21:45:22.983Z,8.13
2019-03-31T21:47:57.073Z,8.10
2019-03-31T21:50:31.270Z,8.04
2019-03-31T21:53:04.359Z,7.98
2019-03-31T21:55:38.088Z,7.88
2019-03-31T21:58:11.693Z,7.83
2019-03-31T22:01:03.212Z,7.76
2019-03-31T22:03:37.043Z,7.69
2019-03-31T22:06:11.031Z,7.64
2019-03-31T22:08:45.243Z,7.62
2019-03-31T22:11:19.103Z,7.59
2019-03-31T22:13:52.758Z,7.52
2019-03-31T22:16:26.736Z,7.47
2019-03-31T22:19:00.867Z,7.40
2019-03-31T22:21:34.681Z,7.37
2019-03-31T22:24:09.287Z,7.33
2019-03-31T22:26:42.476Z,7.29
2019-03-31T22:29:16.493Z,7.25
2019-03-31T22:31:50.055Z,7.17
2019-03-31T22:34:23.779Z,7.09
2019-03-31T22:37:15.610Z,7.04
2019-03-31T22:39:48.922Z,6.94
2019-03-31T22:42:22.546Z,6.93
2019-03-31T22:44:55.611Z,6.90
2019-03-31T22:47:29.623Z,6.87
2019-03-31T22:50:02.832Z,6.84
2019-03-31T22:52:36.526Z,6.80
2019-03-31T22:55:09.878Z,6.78
2019-03-31T22:57:44.330Z,6.74
2019-03-31T23:00:21.772Z,6.70
2019-03-31T23:02:55.090Z,6.66
2019-03-31T23:05:28.385Z,6.62
2019-03-31T23:08:02.559Z,6.60
2019-03-31T23:10:37.159Z,6.59
2019-03-31T23:13:11.005Z,6.56
2019-03-31T23:15:45.230Z,6.55
2019-03-31T23:18:19.216Z,6.51
2019-03-31T23:20:53.120Z,6.50
2019-03-31T23:23:26.328Z,6.50
2019-03-31T23:26:00.202Z,6.50
2019-03-31T23:28:35.582Z,6.49
2019-03-31T23:31:09.778Z,6.44
2019-03-31T23:33:44.003Z,6.41
2019-03-31T23:36:17.801Z,6.36
2019-03-31T23:38:51.929Z,6.34
2019-03-31T23:41:26.116Z,6.30
2019-03-31T23:43:59.941Z,6.27
2019-03-31T23:46:34.106Z,6.24
2019-03-31T23:49:07.637Z,6.23
2019-03-31T23:51:41.796Z,6.17
2019-03-31T23:54:15.877Z,6.15
2019-03-31T23:56:49.546Z,6.13
2019-03-31T23:59:22.978Z,6.09
